Blanco, OK (74528)

9:45 PM CDT on July 25, 2014 (GMT -0500)
McAlester Regional (KMLC) Elev 768 ft | 34.88 °N, 95.78 °W | Change Station

Current weather conditions updated 52 minutes ago

Clear
Clear
84 °F
Feels Like 90 °F
N
7
Wind Variable Wind from SSE

Tomorrow is forecast to be Warmer than today.

Today
High -- | Low -- °F
--% Chance of Precip.
Yesterday
High -- | Low -- °F
Precip. -- in
6:27 AM 8:31 PM
Waning Crescent, 1% visible
Pressure 29.89 in
Visibility 10.0 miles
Clouds Clear
Heat Index 90 °F
Dew Point 73 °F
Humidity 69%
Rainfall 0.00 in
Snow Depth Not available.
UV 0 out of 12
Pollen 4.70 out of 12
Air Quality Not available.
Flu Activity Not available.
METAR KMLC 260153Z AUTO 15006KT 10SM CLR 29/23 A2993 RMK AO2 SLP122 T02890228

More Conditions Fewer Conditions

Pressure 29.89 in
Visibility 10.0 miles
Clouds Clear
Heat Index 90 °F
Dew Point 73 °F
Humidity 69%
Rainfall 0.00 in
Snow Depth Not available.
UV 0 out of 12
Pollen 4.70 out of 12
Air Quality Not available.
Flu Activity Not available.
METAR KMLC 260153Z AUTO 15006KT 10SM CLR 29/23 A2993 RMK AO2 SLP122 T02890228

More Conditions Fewer Conditions

10-Day Weather Forecast

Almanac

Astronomy

Jul. 25, 2014 Rise Set
Actual Time 6:27 AM CDT 8:31 PM CDT
Civil Twilight 5:59 AM CDT 8:59 PM CDT
Nautical Twilight 5:25 AM CDT 9:33 PM CDT
Astronomical Twilight 4:48 AM CDT 10:10 PM CDT
Moon 5:26 AM CDT (7/25) 7:30 PM CDT (7/25)
Length of Visible Light 14h 59m
Length of Day
14h 03m
Tomorrow will be 1m 27s shorter.
Waning Crescent, 1% of the Moon is Illuminated
Today
Waning Crescent
Jul 26
New
Aug 3
First Quarter
Aug 10
Full
Aug 17
Last Quarter

Today's Extremes

State Highs State Lows

Community

WunderPhotos

Upload Photos

1,737,486 photos uploaded!

Nearby

Snow Depth

Station Depth Elevation
No new snow has been reported.

Earthquake Activity

City Distance Mag. Time & Date
Perry, Oklahoma 144 miles 2.9 7:28 AM CDT
2014-07-20
Minimum magnitude displayed is 2.5.

Coastal Water Temperatures

Place Temperature
No Stations Reporting

Nearby Weather Stations

Station Location Temp. Heat Index Dew Point Humidity Wind Precip. Elev Updated Type
MesoWest NAVY , Savanna, OK 82 °F 80 °F - - North  at  - 0.00 in / hr 711 ft 7:55 PM CDT MADIS
Kinkead Hills, McAlester, OK 80.0 °F 85 °F 74 °F 82% SSE  at  0.0 mph - / hr 808 ft 9:40 PM CDT Normal
MesoWest GRACE , Wardville, OK 83 °F 81 °F - - North  at  - 0.00 in / hr 678 ft 8:15 PM CDT MADIS
MesoWest MCALES , Crowder, OK 88 °F 85 °F - - North  at  - 0.00 in / hr 616 ft 8:40 PM CDT MADIS

Show More Stations Show Fewer Stations